createdAt,value
2023-11-20T00:01:10.274Z,20.88
2023-11-20T00:03:36.974Z,19.58
2023-11-20T00:06:03.793Z,18.67
2023-11-20T00:08:30.300Z,17.42
2023-11-20T00:10:56.755Z,21.75
2023-11-20T00:13:23.250Z,20.02
2023-11-20T00:15:49.974Z,16.45
2023-11-20T00:18:16.550Z,17.23
2023-11-20T00:20:42.986Z,18.13
2023-11-20T00:23:09.498Z,18.63
2023-11-20T00:25:36.077Z,17.88
2023-11-20T00:28:02.984Z,16.17
2023-11-20T00:30:29.540Z,17.70
2023-11-20T00:32:56.176Z,17.30
2023-11-20T00:37:49.101Z,17.17
2023-11-20T00:40:15.766Z,18.55
2023-11-20T00:45:09.077Z,24.73
2023-11-20T00:47:35.546Z,33.53
2023-11-20T00:50:02.196Z,32.58
2023-11-20T00:54:58.860Z,24.63
2023-11-20T00:57:25.442Z,19.00
2023-11-20T00:59:52.410Z,21.52
2023-11-20T01:02:18.989Z,24.58
2023-11-20T01:04:45.511Z,24.63
2023-11-20T01:07:11.987Z,20.63
2023-11-20T01:09:41.451Z,21.35
2023-11-20T01:12:08.068Z,21.85
2023-11-20T01:17:01.002Z,19.63
2023-11-20T01:19:27.486Z,20.40
2023-11-20T01:21:54.030Z,17.45
2023-11-20T01:24:20.494Z,20.48
2023-11-20T01:26:47.036Z,19.83
2023-11-20T01:29:13.532Z,17.15
2023-11-20T01:31:40.056Z,19.48
2023-11-20T01:34:06.681Z,17.67
2023-11-20T01:38:59.645Z,15.45
2023-11-20T01:41:29.308Z,16.30
2023-11-20T01:43:55.911Z,18.92
2023-11-20T01:48:49.893Z,19.35
2023-11-20T01:51:16.754Z,15.20
2023-11-20T01:53:45.380Z,15.32
2023-11-20T01:56:13.916Z,15.50
2023-11-20T01:58:40.574Z,14.48
2023-11-20T02:03:34.778Z,12.30
2023-11-20T02:06:01.918Z,12.13
2023-11-20T02:08:31.548Z,16.88
2023-11-20T02:11:03.513Z,13.38
2023-11-20T02:13:31.001Z,13.63
2023-11-20T02:15:57.765Z,17.02
2023-11-20T02:18:31.645Z,16.40
2023-11-20T02:20:58.477Z,17.75
2023-11-20T02:23:24.950Z,17.15
2023-11-20T02:25:56.988Z,12.15
2023-11-20T02:28:28.720Z,13.00
2023-11-20T02:30:56.389Z,14.75
2023-11-20T02:33:22.947Z,11.18
2023-11-20T02:35:50.553Z,11.43
2023-11-20T02:38:17.209Z,11.80
2023-11-20T02:40:43.876Z,11.02
2023-11-20T02:45:37.029Z,11.07
2023-11-20T02:50:31.649Z,10.98
2023-11-20T02:52:58.133Z,12.35
2023-11-20T02:55:24.644Z,11.95
2023-11-20T02:57:51.227Z,10.80
2023-11-20T03:02:44.735Z,12.85
2023-11-20T03:07:38.194Z,11.63
2023-11-20T03:10:05.348Z,13.52
2023-11-20T03:12:31.965Z,12.40
2023-11-20T03:15:00.121Z,14.85
2023-11-20T03:17:27.779Z,12.43
2023-11-20T03:19:54.346Z,12.38
2023-11-20T03:22:20.916Z,13.98
2023-11-20T03:24:49.587Z,16.00
2023-11-20T03:27:16.127Z,16.52
2023-11-20T03:29:44.568Z,16.33
2023-11-20T03:32:11.134Z,14.90
2023-11-20T03:34:37.649Z,12.77
2023-11-20T03:37:06.448Z,16.13
2023-11-20T03:39:33.202Z,13.43
2023-11-20T03:44:26.164Z,23.38
2023-11-20T03:46:52.776Z,21.23
2023-11-20T03:49:19.277Z,16.15
2023-11-20T03:51:45.908Z,15.43
2023-11-20T03:54:12.444Z,19.15
2023-11-20T03:56:38.916Z,21.02
2023-11-20T03:59:05.460Z,15.23
2023-11-20T04:01:32.004Z,17.67
2023-11-20T04:03:58.693Z,14.82
2023-11-20T04:08:51.540Z,13.13
2023-11-20T04:11:18.956Z,15.43
2023-11-20T04:13:45.431Z,16.38
2023-11-20T04:16:12.614Z,21.17
2023-11-20T04:18:39.730Z,18.08
2023-11-20T04:21:07.174Z,16.60
2023-11-20T04:23:34.070Z,12.65
2023-11-20T04:26:01.099Z,12.32
2023-11-20T04:28:29.313Z,17.67
2023-11-20T04:30:55.913Z,17.75
2023-11-20T04:35:49.074Z,16.23
2023-11-20T04:38:15.994Z,19.45
2023-11-20T04:40:43.045Z,17.83
2023-11-20T04:43:09.572Z,16.08
2023-11-20T04:45:36.220Z,13.50
2023-11-20T04:50:29.686Z,11.70
2023-11-20T04:52:56.237Z,10.65
2023-11-20T04:55:22.733Z,13.93
2023-11-20T04:57:49.570Z,11.27
2023-11-20T05:00:16.425Z,14.02
2023-11-20T05:02:42.997Z,11.60
2023-11-20T05:07:36.279Z,12.85
2023-11-20T05:10:03.012Z,9.65
2023-11-20T05:12:30.208Z,11.57
2023-11-20T05:14:56.909Z,10.52
2023-11-20T05:17:23.623Z,10.88
2023-11-20T05:22:18.514Z,11.48
2023-11-20T05:24:45.273Z,10.38
2023-11-20T05:27:11.948Z,13.18
2023-11-20T05:32:06.136Z,16.52
2023-11-20T05:34:34.835Z,13.05
2023-11-20T05:37:01.951Z,18.55
2023-11-20T05:39:28.522Z,22.80
2023-11-20T05:41:55.018Z,18.70
2023-11-20T05:44:21.560Z,17.27
2023-11-20T05:46:48.073Z,16.33
2023-11-20T05:49:14.704Z,15.43
2023-11-20T05:51:43.470Z,17.08
2023-11-20T05:54:10.295Z,18.58
2023-11-20T05:56:37.737Z,16.35
2023-11-20T05:59:05.158Z,16.05
2023-11-20T06:01:43.139Z,16.95
2023-11-20T06:04:11.155Z,15.30
2023-11-20T06:06:39.110Z,14.90
2023-11-20T06:09:07.069Z,16.42
2023-11-20T06:11:35.317Z,14.00
2023-11-20T06:14:02.444Z,16.25
2023-11-20T06:16:28.980Z,18.08
2023-11-20T06:18:55.946Z,17.60
2023-11-20T06:21:23.085Z,16.88
2023-11-20T06:23:49.761Z,13.35
2023-11-20T06:28:43.309Z,17.48
2023-11-20T06:31:11.421Z,17.00
2023-11-20T06:33:38.607Z,24.77
2023-11-20T06:36:06.332Z,23.27
2023-11-20T06:38:35.394Z,24.52
2023-11-20T06:41:03.589Z,22.80
2023-11-20T06:43:30.163Z,23.13
2023-11-20T06:45:57.580Z,21.10
2023-11-20T06:48:24.087Z,18.50
2023-11-20T06:50:50.606Z,22.13
2023-11-20T06:53:17.059Z,22.60
2023-11-20T06:55:43.563Z,22.90
2023-11-20T06:58:11.336Z,27.25
2023-11-20T07:00:40.761Z,24.83
2023-11-20T07:03:07.356Z,25.30
2023-11-20T07:05:36.250Z,18.67
2023-11-20T07:08:08.019Z,23.08
2023-11-20T07:10:34.540Z,22.27
2023-11-20T07:13:01.111Z,28.23
2023-11-20T07:15:27.628Z,24.10
2023-11-20T07:17:54.248Z,22.75
2023-11-20T07:22:48.267Z,18.65
2023-11-20T07:25:14.867Z,18.13
2023-11-20T07:30:10.359Z,21.05
2023-11-20T07:32:37.600Z,20.65
2023-11-20T07:35:05.830Z,26.42
2023-11-20T07:37:32.911Z,19.45
2023-11-20T07:40:02.084Z,21.17
2023-11-20T07:42:29.894Z,24.90
2023-11-20T07:44:56.387Z,27.20
2023-11-20T07:47:23.321Z,21.95
2023-11-20T07:49:49.882Z,20.70
2023-11-20T07:52:16.468Z,22.55
2023-11-20T07:57:13.000Z,27.33
2023-11-20T07:59:39.556Z,25.17
2023-11-20T08:02:08.936Z,25.42
2023-11-20T08:04:36.240Z,29.30
2023-11-20T08:07:04.577Z,27.15
2023-11-20T08:09:31.064Z,29.13
2023-11-20T08:11:57.698Z,30.35
2023-11-20T08:16:50.795Z,30.52
2023-11-20T08:19:17.897Z,36.20
2023-11-20T08:21:44.499Z,31.25
2023-11-20T08:24:12.921Z,35.53
2023-11-20T08:26:39.868Z,31.88
2023-11-20T08:29:08.057Z,32.33
2023-11-20T08:31:36.574Z,32.20
2023-11-20T08:34:03.220Z,33.75
2023-11-20T08:38:56.138Z,34.45
2023-11-20T08:41:23.983Z,32.35
2023-11-20T08:43:50.497Z,33.47
2023-11-20T08:48:43.661Z,32.60
2023-11-20T08:51:10.469Z,34.50
2023-11-20T08:53:36.985Z,34.50
2023-11-20T08:58:30.520Z,34.15
2023-11-20T09:00:57.064Z,35.35
2023-11-20T09:05:50.171Z,36.85
2023-11-20T09:10:44.126Z,44.67
2023-11-20T09:13:11.194Z,35.22
2023-11-20T09:15:38.577Z,32.97
2023-11-20T09:18:05.893Z,31.33
2023-11-20T09:20:32.577Z,32.63
2023-11-20T09:25:25.976Z,28.08
2023-11-20T09:27:52.627Z,25.50
2023-11-20T09:30:19.298Z,27.38
2023-11-20T09:32:45.966Z,23.98
2023-11-20T09:35:12.569Z,19.13
2023-11-20T09:40:06.144Z,21.88
2023-11-20T09:42:32.764Z,19.75
2023-11-20T09:45:02.054Z,21.30
2023-11-20T09:47:30.561Z,18.55
2023-11-20T09:50:01.248Z,17.10
2023-11-20T09:52:33.462Z,13.55
2023-11-20T09:55:00.240Z,15.30
2023-11-20T09:57:28.457Z,8.30
2023-11-20T09:59:55.532Z,10.02
2023-11-20T10:02:22.353Z,10.18
2023-11-20T10:04:55.877Z,8.38
2023-11-20T10:07:27.569Z,8.38
2023-11-20T10:09:57.628Z,7.85
2023-11-20T10:12:27.722Z,6.63
2023-11-20T10:14:54.828Z,9.30
2023-11-20T10:17:23.207Z,7.43
2023-11-20T10:19:49.706Z,6.50
2023-11-20T10:24:49.742Z,6.72
2023-11-20T10:27:18.501Z,6.60
2023-11-20T10:29:45.096Z,6.95
2023-11-20T10:32:13.176Z,4.07
2023-11-20T10:34:39.952Z,4.50
2023-11-20T10:39:34.675Z,7.78
2023-11-20T10:42:01.215Z,6.38
2023-11-20T10:46:54.906Z,6.80
2023-11-20T10:49:23.016Z,5.60
2023-11-20T10:51:57.436Z,5.45
2023-11-20T10:54:44.612Z,6.22
2023-11-20T10:57:11.548Z,6.85
2023-11-20T10:59:38.636Z,6.45
2023-11-20T11:02:09.818Z,5.70
2023-11-20T11:04:38.488Z,4.57
2023-11-20T11:07:09.949Z,6.07
2023-11-20T11:09:38.732Z,4.38
2023-11-20T11:12:07.304Z,4.90
2023-11-20T11:14:34.912Z,4.80
2023-11-20T11:17:10.846Z,7.10
2023-11-20T11:19:41.875Z,8.20
2023-11-20T11:22:14.683Z,7.55
2023-11-20T11:27:23.123Z,8.95
2023-11-20T11:29:58.354Z,9.23
2023-11-20T11:32:31.241Z,13.38
2023-11-20T11:35:03.876Z,11.55
2023-11-20T11:37:42.689Z,11.55
2023-11-20T11:40:30.663Z,12.27
2023-11-20T11:43:05.709Z,11.35
2023-11-20T11:45:34.240Z,10.90
2023-11-20T11:48:00.872Z,9.85
2023-11-20T11:50:28.089Z,11.52
2023-11-20T11:52:56.341Z,14.45
2023-11-20T11:55:26.363Z,14.57
2023-11-20T11:57:55.708Z,15.90
2023-11-20T12:00:22.601Z,15.45
2023-11-20T12:03:03.131Z,18.75
2023-11-20T12:05:32.910Z,13.23
2023-11-20T12:08:03.024Z,19.50
2023-11-20T12:10:47.343Z,15.55
2023-11-20T12:13:17.310Z,11.25
2023-11-20T12:16:09.369Z,13.68
2023-11-20T12:18:38.155Z,11.00
2023-11-20T12:21:10.578Z,13.40
2023-11-20T12:23:43.959Z,18.08
2023-11-20T12:26:15.825Z,17.38
2023-11-20T12:28:43.113Z,12.13
2023-11-20T12:31:14.648Z,8.38
2023-11-20T12:33:45.290Z,7.43
2023-11-20T12:36:12.700Z,11.23
2023-11-20T12:38:41.542Z,12.88
2023-11-20T12:41:12.105Z,13.00
2023-11-20T12:43:39.198Z,14.55
2023-11-20T12:46:08.024Z,14.18
2023-11-20T12:48:37.300Z,12.15
2023-11-20T12:51:04.887Z,11.75
2023-11-20T12:53:32.929Z,12.82
2023-11-20T12:56:01.962Z,14.40
2023-11-20T12:58:28.627Z,11.88
2023-11-20T13:00:55.321Z,13.70
2023-11-20T13:03:22.918Z,12.07
2023-11-20T13:05:51.861Z,12.63
2023-11-20T13:08:24.535Z,9.07
2023-11-20T13:13:25.175Z,10.27
2023-11-20T13:15:56.542Z,12.10
2023-11-20T13:18:25.190Z,10.85
2023-11-20T13:20:53.488Z,8.40
2023-11-20T13:23:22.660Z,5.10
2023-11-20T13:25:54.319Z,6.72
2023-11-20T13:28:25.462Z,6.05
2023-11-20T13:31:05.166Z,6.35
2023-11-20T13:33:33.076Z,4.57
2023-11-20T13:36:01.445Z,5.55
2023-11-20T13:38:29.329Z,4.22
2023-11-20T13:40:57.054Z,4.05
2023-11-20T13:43:24.500Z,4.03
2023-11-20T13:45:56.830Z,4.50
2023-11-20T13:48:27.547Z,4.45
2023-11-20T13:50:54.974Z,6.28
2023-11-20T13:53:24.135Z,6.03
2023-11-20T13:55:52.559Z,6.32
2023-11-20T13:58:24.121Z,4.72
2023-11-20T14:00:57.264Z,4.45
2023-11-20T14:03:24.703Z,4.38
2023-11-20T14:05:51.920Z,6.53
2023-11-20T14:08:18.841Z,5.30
2023-11-20T14:10:52.503Z,4.82
2023-11-20T14:13:20.585Z,6.10
2023-11-20T14:15:47.203Z,6.32
2023-11-20T14:18:14.681Z,8.77
2023-11-20T14:20:41.295Z,6.10
2023-11-20T14:23:07.997Z,6.22
2023-11-20T14:25:34.646Z,7.82
2023-11-20T14:28:01.774Z,5.93
2023-11-20T14:30:28.393Z,7.57
2023-11-20T14:32:56.542Z,12.00
2023-11-20T14:35:23.191Z,6.68
2023-11-20T14:37:50.072Z,5.95
2023-11-20T14:40:18.579Z,7.50
2023-11-20T14:42:47.506Z,8.43
2023-11-20T14:45:16.028Z,4.10
2023-11-20T14:47:50.751Z,3.65
2023-11-20T14:50:18.734Z,15.25
2023-11-20T14:52:47.419Z,16.92
2023-11-20T14:55:14.660Z,17.08
2023-11-20T14:57:43.215Z,9.68
2023-11-20T15:00:16.008Z,6.70
2023-11-20T15:02:53.072Z,5.35
2023-11-20T15:05:21.834Z,6.55
2023-11-20T15:07:48.696Z,6.15
2023-11-20T15:10:16.165Z,8.88
2023-11-20T15:12:44.276Z,7.03
2023-11-20T15:15:12.521Z,7.70
2023-11-20T15:17:44.066Z,7.95
2023-11-20T15:20:16.522Z,7.32
2023-11-20T15:22:44.566Z,7.78
2023-11-20T15:25:11.511Z,6.95
2023-11-20T15:27:38.187Z,9.60
2023-11-20T15:30:08.307Z,8.75
2023-11-20T15:32:34.927Z,9.43
2023-11-20T15:35:01.482Z,10.30
2023-11-20T15:37:30.601Z,7.50
2023-11-20T15:39:57.487Z,9.13
2023-11-20T15:42:24.068Z,13.27
2023-11-20T15:47:17.141Z,12.93
2023-11-20T15:49:43.756Z,16.98
2023-11-20T15:52:10.304Z,23.20
2023-11-20T15:54:39.226Z,20.05
2023-11-20T15:57:06.009Z,21.38
2023-11-20T15:59:32.609Z,17.55
2023-11-20T16:01:59.177Z,14.85
2023-11-20T16:04:25.908Z,13.43
2023-11-20T16:06:53.759Z,14.95
2023-11-20T16:09:21.655Z,14.55
2023-11-20T16:11:48.907Z,16.23
2023-11-20T16:14:15.842Z,16.25
2023-11-20T16:16:46.617Z,16.98
2023-11-20T16:19:14.114Z,16.95
2023-11-20T16:21:41.524Z,20.10
2023-11-20T16:24:09.101Z,28.27
2023-11-20T16:26:35.602Z,22.70
2023-11-20T16:31:45.354Z,27.55
2023-11-20T16:34:12.291Z,22.02
2023-11-20T16:36:39.930Z,18.13
2023-11-20T16:39:07.345Z,20.77
2023-11-20T16:41:33.865Z,21.00
2023-11-20T16:44:02.990Z,21.55
2023-11-20T16:46:31.729Z,24.58
2023-11-20T16:48:59.923Z,22.50
2023-11-20T16:53:52.984Z,17.88
2023-11-20T16:56:19.492Z,14.38
2023-11-20T17:01:12.655Z,29.63
2023-11-20T17:03:39.388Z,45.38
2023-11-20T17:06:09.087Z,32.83
2023-11-20T17:08:36.333Z,25.10
2023-11-20T17:11:03.782Z,30.83
2023-11-20T17:13:30.975Z,28.58
2023-11-20T17:15:57.992Z,26.35
2023-11-20T17:18:24.620Z,23.05
2023-11-20T17:20:51.144Z,20.05
2023-11-20T17:23:17.737Z,24.60
2023-11-20T17:25:44.273Z,27.77
2023-11-20T17:28:10.856Z,24.42
2023-11-20T17:30:37.420Z,27.27
2023-11-20T17:33:04.025Z,31.55
2023-11-20T17:35:30.554Z,30.70
2023-11-20T17:37:57.064Z,28.02
2023-11-20T17:40:25.584Z,26.20
2023-11-20T17:42:52.574Z,25.85
2023-11-20T17:45:19.264Z,21.15
2023-11-20T17:47:45.775Z,23.80
2023-11-20T17:52:39.935Z,25.85
2023-11-20T17:55:09.014Z,26.45
2023-11-20T17:57:37.236Z,32.80
2023-11-20T18:00:10.837Z,30.50
2023-11-20T18:02:37.522Z,40.88
2023-11-20T18:05:07.622Z,31.48
2023-11-20T18:07:34.641Z,23.45
2023-11-20T18:10:02.527Z,19.60
2023-11-20T18:12:29.239Z,19.60
2023-11-20T18:14:57.249Z,24.90
2023-11-20T18:17:25.380Z,27.75
2023-11-20T18:19:52.002Z,27.10
2023-11-20T18:22:19.160Z,24.75
2023-11-20T18:24:45.802Z,27.77
2023-11-20T18:27:13.499Z,29.02
2023-11-20T18:29:40.325Z,29.90
2023-11-20T18:32:07.307Z,31.00
2023-11-20T18:34:34.076Z,29.52
2023-11-20T18:37:02.111Z,27.55
2023-11-20T18:39:30.209Z,26.75
2023-11-20T18:41:57.076Z,24.00
2023-11-20T18:44:23.649Z,20.33
2023-11-20T18:49:18.856Z,16.65
2023-11-20T18:51:45.502Z,19.45
2023-11-20T18:56:39.329Z,14.55
2023-11-20T19:01:32.419Z,17.35
2023-11-20T19:04:01.835Z,16.45
2023-11-20T19:06:28.711Z,14.73
2023-11-20T19:08:56.213Z,13.85
2023-11-20T19:11:22.800Z,15.10
2023-11-20T19:16:15.876Z,14.80
2023-11-20T19:18:42.440Z,18.58
2023-11-20T19:23:36.948Z,21.30
2023-11-20T19:26:03.494Z,16.48
2023-11-20T19:30:56.540Z,28.30
2023-11-20T19:33:23.103Z,30.85
2023-11-20T19:35:49.679Z,30.75
2023-11-20T19:40:42.832Z,28.67
2023-11-20T19:43:09.470Z,30.00
2023-11-20T19:45:36.243Z,26.27
2023-11-20T19:48:02.763Z,28.67
2023-11-20T19:52:55.775Z,43.15
2023-11-20T19:57:48.954Z,46.42
2023-11-20T20:00:15.764Z,39.97
2023-11-20T20:02:45.053Z,38.35
2023-11-20T20:05:18.433Z,29.83
2023-11-20T20:07:46.654Z,27.92
2023-11-20T20:10:14.050Z,24.23
2023-11-20T20:12:40.656Z,33.42
2023-11-20T20:17:36.166Z,44.35
2023-11-20T20:20:07.417Z,46.72
2023-11-20T20:22:35.120Z,39.53
2023-11-20T20:25:02.376Z,38.63
2023-11-20T20:27:29.308Z,38.25
2023-11-20T20:29:56.576Z,41.13
2023-11-20T20:32:23.115Z,48.33
2023-11-20T20:37:17.450Z,61.70
2023-11-20T20:39:46.075Z,53.47
2023-11-20T20:42:12.874Z,50.85
2023-11-20T20:44:40.400Z,53.28
2023-11-20T20:47:07.318Z,31.80
2023-11-20T20:49:33.929Z,40.03
2023-11-20T20:52:01.046Z,40.60
2023-11-20T20:54:27.577Z,37.10
2023-11-20T20:56:54.401Z,38.83
2023-11-20T20:59:21.160Z,34.80
2023-11-20T21:01:47.957Z,34.25
2023-11-20T21:04:18.592Z,33.30
2023-11-20T21:06:45.150Z,30.65
2023-11-20T21:09:13.547Z,26.42
2023-11-20T21:11:40.147Z,40.42
2023-11-20T21:14:06.666Z,38.97
2023-11-20T21:16:33.332Z,45.60
2023-11-20T21:19:00.126Z,50.00
2023-11-20T21:21:26.633Z,46.42
2023-11-20T21:23:53.207Z,46.67
2023-11-20T21:28:46.672Z,31.33
2023-11-20T21:33:40.397Z,35.60
2023-11-20T21:38:35.917Z,22.92
2023-11-20T21:41:02.402Z,35.97
2023-11-20T21:43:29.422Z,34.50
2023-11-20T21:45:55.996Z,32.72
2023-11-20T21:50:48.932Z,36.13
2023-11-20T21:53:15.485Z,38.28
2023-11-20T21:58:09.587Z,38.13
2023-11-20T22:00:36.131Z,37.95
2023-11-20T22:03:03.205Z,32.42
2023-11-20T22:05:30.013Z,23.15
2023-11-20T22:10:23.586Z,20.50
2023-11-20T22:15:17.101Z,15.77
2023-11-20T22:17:44.391Z,20.00
2023-11-20T22:20:12.853Z,18.27
2023-11-20T22:22:39.859Z,17.75
2023-11-20T22:25:06.635Z,16.80
2023-11-20T22:27:33.630Z,16.85
2023-11-20T22:30:00.538Z,22.30
2023-11-20T22:32:27.237Z,20.85
2023-11-20T22:37:40.207Z,15.25
2023-11-20T22:42:35.911Z,18.92
2023-11-20T22:45:02.644Z,22.55
2023-11-20T22:47:29.293Z,22.92
2023-11-20T22:49:55.820Z,20.35
2023-11-20T22:52:22.331Z,20.80
2023-11-20T22:54:48.864Z,16.83
2023-11-20T22:57:15.332Z,21.77
2023-11-20T22:59:42.133Z,23.48
2023-11-20T23:02:08.705Z,22.63
2023-11-20T23:04:35.384Z,21.17
2023-11-20T23:07:01.896Z,23.63
2023-11-20T23:09:28.459Z,24.83
2023-11-20T23:14:21.347Z,18.38
2023-11-20T23:16:47.896Z,18.23
2023-11-20T23:19:14.448Z,17.23
2023-11-20T23:24:09.774Z,36.83
2023-11-20T23:26:36.501Z,38.22
2023-11-20T23:29:07.107Z,39.65
2023-11-20T23:31:37.671Z,32.40
2023-11-20T23:34:06.585Z,27.17
2023-11-20T23:36:33.476Z,28.33
2023-11-20T23:39:00.554Z,25.33
2023-11-20T23:41:27.476Z,25.08
2023-11-20T23:43:55.167Z,26.42
2023-11-20T23:46:22.260Z,24.13
2023-11-20T23:48:51.766Z,25.13
2023-11-20T23:51:18.841Z,22.60
2023-11-20T23:53:45.351Z,27.52
2023-11-20T23:56:12.022Z,22.73
